Aérodrome :
LOGIN :

S'inscrire | Disclaimer

   EN    FR    IT 

 










Légende :    VFR   VFR Marginal   IFR   IFR Intensif   IFR Très Intensif
Visi : 
Plafond : 
>= 8 km
>= 3000ft
5 à 8 km
1000 à 3000 ft
1500m à 5 km
500 à 1000 ft
800 à 1500m
200 à 500 ft
< 800m
< 200 ft
Symboles :   Orages  Brouillard  Fortes neiges  Fortes précipitations  Vent > 20 kt
SIGMETs :   Divers  Orages  Givrage  Turbulence  Onde Orograph.  Cendres Volcan.






- Altitude de l'aérodrome : 161 ft
- Code IATA : TKU


EFTU - Turku

DERNIER METAR :
  • 300720Z AUTO 03006KT 350V060 CAVOK M04/M06 Q1020

METARs EXPIRÉS :
  • 300650Z AUTO 03005KT 340V090 CAVOK M04/M06 Q1020
  • 300620Z AUTO 03006KT 350V060 9999 FEW021 OVC069 M04/M06 Q1020
  • 300550Z AUTO 03006KT 360V060 CAVOK M04/M06 Q1019 RESG
  • 300520Z AUTO 05005KT 030V090 8000 -SN OVC031 M04/M06 Q1019
  • 300450Z AUTO 06006KT 1600 -SN FEW007 OVC016 M04/M06 Q1019
  • 300420Z AUTO 06007KT 1300 R26/2000N -SN OVC010 M04/M06 Q1018 RESN

TAF TAF EFTU
Valide du 30 à 06h jusqu'au 31 à 06h UTC


300533Z 3006/3106 04008KT 9999 BKN035
TEMPO 3006/3016 2000 -SHSN SCT030CB



MET'MAP, la Météo Aéronautique d'un coup d'oeil ! - Copyright ORBIFLY Décembre 2007 - Disclaimer

ORBIFLY MET'MAP TEAM :

Programmation & Développement : Alexandra Zaïnal
Sur une idée originale de : Baudouin d'Aumeries
Assistance à la programmation : Marc-Olivier Méhu
Soutien technique & logistique : Manuel Goepfert

Contact : metmap@orbifly.com




SOURCES & CREDITS :

   NOAA